sensor_id;sensor_type;location;lat;lon;timestamp;temperature;humidity
52743;DHT22;55583;53.012;6.556;2022-07-09T00:02:23;16.00;99.90
52743;DHT22;55583;53.012;6.556;2022-07-09T00:04:49;16.00;99.90
52743;DHT22;55583;53.012;6.556;2022-07-09T00:07:15;16.00;99.90
52743;DHT22;55583;53.012;6.556;2022-07-09T00:09:40;15.90;99.90
52743;DHT22;55583;53.012;6.556;2022-07-09T00:12:06;15.80;99.90
52743;DHT22;55583;53.012;6.556;2022-07-09T00:14:32;15.80;99.90
52743;DHT22;55583;53.012;6.556;2022-07-09T00:16:57;15.70;99.90
52743;DHT22;55583;53.012;6.556;2022-07-09T00:19:23;15.70;99.90
52743;DHT22;55583;53.012;6.556;2022-07-09T00:21:48;15.70;99.90
52743;DHT22;55583;53.012;6.556;2022-07-09T00:24:14;15.60;99.90
52743;DHT22;55583;53.012;6.556;2022-07-09T00:26:40;15.60;99.90
52743;DHT22;55583;53.012;6.556;2022-07-09T00:29:05;15.60;99.90
52743;DHT22;55583;53.012;6.556;2022-07-09T00:31:31;15.60;99.90
52743;DHT22;55583;53.012;6.556;2022-07-09T00:33:56;15.50;99.90
52743;DHT22;55583;53.012;6.556;2022-07-09T00:36:22;15.50;99.90
52743;DHT22;55583;53.012;6.556;2022-07-09T00:38:48;15.50;99.90
52743;DHT22;55583;53.012;6.556;2022-07-09T00:41:13;15.60;99.90
52743;DHT22;55583;53.012;6.556;2022-07-09T00:43:46;15.60;99.90
52743;DHT22;55583;53.012;6.556;2022-07-09T00:46:12;15.60;99.90
52743;DHT22;55583;53.012;6.556;2022-07-09T00:48:38;15.60;99.90
52743;DHT22;55583;53.012;6.556;2022-07-09T00:51:04;15.70;99.90
52743;DHT22;55583;53.012;6.556;2022-07-09T00:53:30;15.60;99.90
52743;DHT22;55583;53.012;6.556;2022-07-09T00:55:56;15.60;99.90
52743;DHT22;55583;53.012;6.556;2022-07-09T00:58:22;15.60;99.90
52743;DHT22;55583;53.012;6.556;2022-07-09T01:00:48;15.60;99.90
52743;DHT22;55583;53.012;6.556;2022-07-09T01:03:14;15.60;99.90
52743;DHT22;55583;53.012;6.556;2022-07-09T01:05:40;15.60;99.90
52743;DHT22;55583;53.012;6.556;2022-07-09T01:08:07;15.60;99.90
52743;DHT22;55583;53.012;6.556;2022-07-09T01:10:34;15.60;99.90
52743;DHT22;55583;53.012;6.556;2022-07-09T01:13:00;15.60;99.90
52743;DHT22;55583;53.012;6.556;2022-07-09T01:15:26;15.60;99.90
52743;DHT22;55583;53.012;6.556;2022-07-09T01:17:51;15.70;99.90
52743;DHT22;55583;53.012;6.556;2022-07-09T01:20:22;15.70;99.90
52743;DHT22;55583;53.012;6.556;2022-07-09T01:22:48;15.70;99.90
52743;DHT22;55583;53.012;6.556;2022-07-09T01:25:16;15.70;99.90
52743;DHT22;55583;53.012;6.556;2022-07-09T01:27:42;15.70;99.90
52743;DHT22;55583;53.012;6.556;2022-07-09T01:30:08;15.80;99.90
52743;DHT22;55583;53.012;6.556;2022-07-09T01:32:34;15.80;99.90
52743;DHT22;55583;53.012;6.556;2022-07-09T01:35:00;15.90;99.90
52743;DHT22;55583;53.012;6.556;2022-07-09T01:37:26;15.80;99.90
52743;DHT22;55583;53.012;6.556;2022-07-09T01:39:51;15.80;99.90
52743;DHT22;55583;53.012;6.556;2022-07-09T01:42:18;15.90;99.90
52743;DHT22;55583;53.012;6.556;2022-07-09T01:44:44;15.90;99.90
52743;DHT22;55583;53.012;6.556;2022-07-09T01:47:10;15.90;99.90
52743;DHT22;55583;53.012;6.556;2022-07-09T01:49:37;15.80;99.90
52743;DHT22;55583;53.012;6.556;2022-07-09T01:52:03;15.90;99.90
52743;DHT22;55583;53.012;6.556;2022-07-09T01:54:29;15.90;99.90
52743;DHT22;55583;53.012;6.556;2022-07-09T01:56:55;15.90;99.90
52743;DHT22;55583;53.012;6.556;2022-07-09T01:59:21;15.90;99.90
52743;DHT22;55583;53.012;6.556;2022-07-09T02:01:47;15.90;99.90
52743;DHT22;55583;53.012;6.556;2022-07-09T02:04:13;15.90;99.90
52743;DHT22;55583;53.012;6.556;2022-07-09T02:06:38;15.90;99.90
52743;DHT22;55583;53.012;6.556;2022-07-09T02:09:04;15.90;99.90
52743;DHT22;55583;53.012;6.556;2022-07-09T02:11:29;15.90;99.90
52743;DHT22;55583;53.012;6.556;2022-07-09T02:13:55;15.90;99.90
52743;DHT22;55583;53.012;6.556;2022-07-09T02:16:21;15.90;99.90
52743;DHT22;55583;53.012;6.556;2022-07-09T02:18:46;15.80;99.90
52743;DHT22;55583;53.012;6.556;2022-07-09T02:21:12;15.80;99.90
52743;DHT22;55583;53.012;6.556;2022-07-09T02:23:38;15.70;99.90
52743;DHT22;55583;53.012;6.556;2022-07-09T02:26:03;15.70;99.90
52743;DHT22;55583;53.012;6.556;2022-07-09T02:28:29;15.60;99.90
52743;DHT22;55583;53.012;6.556;2022-07-09T02:30:54;15.60;99.90
52743;DHT22;55583;53.012;6.556;2022-07-09T02:33:20;15.60;99.90
52743;DHT22;55583;53.012;6.556;2022-07-09T02:35:46;15.50;99.90
52743;DHT22;55583;53.012;6.556;2022-07-09T02:38:12;15.50;99.90
52743;DHT22;55583;53.012;6.556;2022-07-09T02:40:37;15.60;99.90
52743;DHT22;55583;53.012;6.556;2022-07-09T02:43:03;15.50;99.90
52743;DHT22;55583;53.012;6.556;2022-07-09T02:45:28;15.60;99.90
52743;DHT22;55583;53.012;6.556;2022-07-09T02:47:54;15.60;99.90
52743;DHT22;55583;53.012;6.556;2022-07-09T02:50:20;15.60;99.90
52743;DHT22;55583;53.012;6.556;2022-07-09T02:52:45;15.50;99.90
52743;DHT22;55583;53.012;6.556;2022-07-09T02:55:11;15.60;99.90
52743;DHT22;55583;53.012;6.556;2022-07-09T02:57:36;15.60;99.90
52743;DHT22;55583;53.012;6.556;2022-07-09T03:00:03;15.60;99.90
52743;DHT22;55583;53.012;6.556;2022-07-09T03:02:29;15.60;99.90
52743;DHT22;55583;53.012;6.556;2022-07-09T03:04:55;15.60;99.90
52743;DHT22;55583;53.012;6.556;2022-07-09T03:07:21;15.60;99.90
52743;DHT22;55583;53.012;6.556;2022-07-09T03:09:46;15.70;99.90
52743;DHT22;55583;53.012;6.556;2022-07-09T03:12:12;15.60;99.90
52743;DHT22;55583;53.012;6.556;2022-07-09T03:14:37;15.70;99.90
52743;DHT22;55583;53.012;6.556;2022-07-09T03:17:03;15.60;99.90
52743;DHT22;55583;53.012;6.556;2022-07-09T03:19:29;15.60;99.90
52743;DHT22;55583;53.012;6.556;2022-07-09T03:21:54;15.50;99.90
52743;DHT22;55583;53.012;6.556;2022-07-09T03:24:21;15.50;99.90
52743;DHT22;55583;53.012;6.556;2022-07-09T03:26:46;15.50;99.90
52743;DHT22;55583;53.012;6.556;2022-07-09T03:29:12;15.40;99.90
52743;DHT22;55583;53.012;6.556;2022-07-09T03:31:38;15.40;99.90
52743;DHT22;55583;53.012;6.556;2022-07-09T03:34:04;15.30;99.90
52743;DHT22;55583;53.012;6.556;2022-07-09T03:36:31;15.30;99.90
52743;DHT22;55583;53.012;6.556;2022-07-09T03:38:57;15.30;99.90
52743;DHT22;55583;53.012;6.556;2022-07-09T03:41:23;15.30;99.90
52743;DHT22;55583;53.012;6.556;2022-07-09T03:43:48;15.30;99.90
52743;DHT22;55583;53.012;6.556;2022-07-09T03:46:14;15.30;99.90
52743;DHT22;55583;53.012;6.556;2022-07-09T03:48:40;15.30;99.90
52743;DHT22;55583;53.012;6.556;2022-07-09T03:51:06;15.30;99.90
52743;DHT22;55583;53.012;6.556;2022-07-09T03:53:32;15.30;99.90
52743;DHT22;55583;53.012;6.556;2022-07-09T03:55:57;15.40;99.90
52743;DHT22;55583;53.012;6.556;2022-07-09T03:58:23;15.40;99.90
52743;DHT22;55583;53.012;6.556;2022-07-09T04:00:48;15.40;99.90
52743;DHT22;55583;53.012;6.556;2022-07-09T04:03:14;15.40;99.90
52743;DHT22;55583;53.012;6.556;2022-07-09T04:05:40;15.40;99.90
52743;DHT22;55583;53.012;6.556;2022-07-09T04:08:06;15.40;99.90
52743;DHT22;55583;53.012;6.556;2022-07-09T04:10:32;15.40;99.90
52743;DHT22;55583;53.012;6.556;2022-07-09T04:12:58;15.40;99.90
52743;DHT22;55583;53.012;6.556;2022-07-09T04:15:23;15.40;99.90
52743;DHT22;55583;53.012;6.556;2022-07-09T04:17:49;15.40;99.90
52743;DHT22;55583;53.012;6.556;2022-07-09T04:20:15;15.40;99.90
52743;DHT22;55583;53.012;6.556;2022-07-09T04:22:40;15.40;99.90
52743;DHT22;55583;53.012;6.556;2022-07-09T04:25:06;15.50;99.90
52743;DHT22;55583;53.012;6.556;2022-07-09T04:27:32;15.50;99.90
52743;DHT22;55583;53.012;6.556;2022-07-09T04:29:57;15.50;99.90
52743;DHT22;55583;53.012;6.556;2022-07-09T04:32:23;15.60;99.90
52743;DHT22;55583;53.012;6.556;2022-07-09T04:34:49;15.60;99.90
52743;DHT22;55583;53.012;6.556;2022-07-09T04:37:14;15.70;99.90
52743;DHT22;55583;53.012;6.556;2022-07-09T04:39:40;15.70;99.90
52743;DHT22;55583;53.012;6.556;2022-07-09T04:42:05;15.70;99.90
52743;DHT22;55583;53.012;6.556;2022-07-09T04:44:31;15.80;99.90
52743;DHT22;55583;53.012;6.556;2022-07-09T04:46:57;15.80;99.90
52743;DHT22;55583;53.012;6.556;2022-07-09T04:49:22;15.80;99.90
52743;DHT22;55583;53.012;6.556;2022-07-09T04:51:49;15.80;99.90
52743;DHT22;55583;53.012;6.556;2022-07-09T04:54:15;15.60;99.90
52743;DHT22;55583;53.012;6.556;2022-07-09T04:56:41;15.80;99.90
52743;DHT22;55583;53.012;6.556;2022-07-09T04:59:07;15.80;99.90
52743;DHT22;55583;53.012;6.556;2022-07-09T05:01:33;15.90;99.90
52743;DHT22;55583;53.012;6.556;2022-07-09T05:03:59;15.90;99.90
52743;DHT22;55583;53.012;6.556;2022-07-09T05:06:25;16.00;99.90
52743;DHT22;55583;53.012;6.556;2022-07-09T05:08:50;16.00;99.90
52743;DHT22;55583;53.012;6.556;2022-07-09T05:11:16;16.10;99.90
52743;DHT22;55583;53.012;6.556;2022-07-09T05:13:42;16.10;99.90
52743;DHT22;55583;53.012;6.556;2022-07-09T05:16:08;16.10;99.90
52743;DHT22;55583;53.012;6.556;2022-07-09T05:18:34;16.10;99.90
52743;DHT22;55583;53.012;6.556;2022-07-09T05:21:00;16.30;99.90
52743;DHT22;55583;53.012;6.556;2022-07-09T05:23:25;16.30;99.90
52743;DHT22;55583;53.012;6.556;2022-07-09T05:25:51;16.30;99.90
52743;DHT22;55583;53.012;6.556;2022-07-09T05:28:17;16.70;99.90
52743;DHT22;55583;53.012;6.556;2022-07-09T05:30:42;16.50;99.90
52743;DHT22;55583;53.012;6.556;2022-07-09T05:33:08;16.60;99.90
52743;DHT22;55583;53.012;6.556;2022-07-09T05:35:34;16.60;99.90
52743;DHT22;55583;53.012;6.556;2022-07-09T05:38:00;16.70;99.90
52743;DHT22;55583;53.012;6.556;2022-07-09T05:40:25;16.80;99.90
52743;DHT22;55583;53.012;6.556;2022-07-09T05:42:51;16.90;99.90
52743;DHT22;55583;53.012;6.556;2022-07-09T05:45:17;17.00;99.90
52743;DHT22;55583;53.012;6.556;2022-07-09T05:47:42;17.00;99.90
52743;DHT22;55583;53.012;6.556;2022-07-09T05:50:08;17.10;99.90
52743;DHT22;55583;53.012;6.556;2022-07-09T05:52:34;17.10;99.90
52743;DHT22;55583;53.012;6.556;2022-07-09T05:55:00;17.20;99.90
52743;DHT22;55583;53.012;6.556;2022-07-09T05:57:26;17.20;99.90
52743;DHT22;55583;53.012;6.556;2022-07-09T05:59:51;17.30;99.90
52743;DHT22;55583;53.012;6.556;2022-07-09T06:02:17;17.30;99.90
52743;DHT22;55583;53.012;6.556;2022-07-09T06:04:44;17.30;99.90
52743;DHT22;55583;53.012;6.556;2022-07-09T06:07:09;17.30;99.90
52743;DHT22;55583;53.012;6.556;2022-07-09T06:09:35;17.40;99.90
52743;DHT22;55583;53.012;6.556;2022-07-09T06:12:01;17.40;99.90
52743;DHT22;55583;53.012;6.556;2022-07-09T06:14:26;17.50;99.90
52743;DHT22;55583;53.012;6.556;2022-07-09T06:16:52;17.50;99.90
52743;DHT22;55583;53.012;6.556;2022-07-09T06:19:19;17.60;99.90
52743;DHT22;55583;53.012;6.556;2022-07-09T06:21:45;17.70;99.90
52743;DHT22;55583;53.012;6.556;2022-07-09T06:24:11;17.70;99.90
52743;DHT22;55583;53.012;6.556;2022-07-09T06:26:36;17.70;99.90
52743;DHT22;55583;53.012;6.556;2022-07-09T06:29:02;17.80;99.90
52743;DHT22;55583;53.012;6.556;2022-07-09T06:31:27;17.90;99.90
52743;DHT22;55583;53.012;6.556;2022-07-09T06:33:53;17.90;99.90
52743;DHT22;55583;53.012;6.556;2022-07-09T06:36:19;17.90;99.90
52743;DHT22;55583;53.012;6.556;2022-07-09T06:38:44;17.90;99.90
52743;DHT22;55583;53.012;6.556;2022-07-09T06:41:28;17.90;99.90
52743;DHT22;55583;53.012;6.556;2022-07-09T06:43:54;18.00;99.90
52743;DHT22;55583;53.012;6.556;2022-07-09T06:46:19;18.00;99.90
52743;DHT22;55583;53.012;6.556;2022-07-09T06:48:46;18.00;99.90
52743;DHT22;55583;53.012;6.556;2022-07-09T06:51:12;18.10;99.90
52743;DHT22;55583;53.012;6.556;2022-07-09T06:53:37;18.10;99.90
52743;DHT22;55583;53.012;6.556;2022-07-09T06:56:03;18.10;99.90
52743;DHT22;55583;53.012;6.556;2022-07-09T06:58:29;18.20;99.90
52743;DHT22;55583;53.012;6.556;2022-07-09T07:00:55;18.20;99.90
52743;DHT22;55583;53.012;6.556;2022-07-09T07:03:20;18.20;99.90
52743;DHT22;55583;53.012;6.556;2022-07-09T07:05:46;18.20;99.90
52743;DHT22;55583;53.012;6.556;2022-07-09T07:08:11;18.20;99.90
52743;DHT22;55583;53.012;6.556;2022-07-09T07:10:37;18.20;99.90
52743;DHT22;55583;53.012;6.556;2022-07-09T07:13:02;18.30;99.90
52743;DHT22;55583;53.012;6.556;2022-07-09T07:15:28;18.40;99.90
52743;DHT22;55583;53.012;6.556;2022-07-09T07:17:53;18.40;99.90
52743;DHT22;55583;53.012;6.556;2022-07-09T07:20:19;18.40;99.90
52743;DHT22;55583;53.012;6.556;2022-07-09T07:22:48;18.40;99.90
52743;DHT22;55583;53.012;6.556;2022-07-09T07:25:14;18.40;99.90
52743;DHT22;55583;53.012;6.556;2022-07-09T07:27:40;18.50;99.90
52743;DHT22;55583;53.012;6.556;2022-07-09T07:30:06;18.50;99.90
52743;DHT22;55583;53.012;6.556;2022-07-09T07:32:32;18.50;99.90
52743;DHT22;55583;53.012;6.556;2022-07-09T07:34:57;18.60;99.90
52743;DHT22;55583;53.012;6.556;2022-07-09T07:37:23;18.60;99.90
52743;DHT22;55583;53.012;6.556;2022-07-09T07:39:49;18.70;99.90
52743;DHT22;55583;53.012;6.556;2022-07-09T07:42:15;18.70;99.90
52743;DHT22;55583;53.012;6.556;2022-07-09T07:44:41;18.90;99.90
52743;DHT22;55583;53.012;6.556;2022-07-09T07:47:07;19.00;99.90
52743;DHT22;55583;53.012;6.556;2022-07-09T07:49:33;19.30;99.90
52743;DHT22;55583;53.012;6.556;2022-07-09T07:51:58;19.50;99.90
52743;DHT22;55583;53.012;6.556;2022-07-09T07:54:24;19.70;99.90
52743;DHT22;55583;53.012;6.556;2022-07-09T07:56:50;19.80;99.90
52743;DHT22;55583;53.012;6.556;2022-07-09T07:59:16;19.90;99.90
52743;DHT22;55583;53.012;6.556;2022-07-09T08:01:42;20.00;99.90
52743;DHT22;55583;53.012;6.556;2022-07-09T08:04:08;20.00;99.90
52743;DHT22;55583;53.012;6.556;2022-07-09T08:06:33;20.10;99.90
52743;DHT22;55583;53.012;6.556;2022-07-09T08:09:03;20.10;99.90
52743;DHT22;55583;53.012;6.556;2022-07-09T08:11:29;20.10;99.90
52743;DHT22;55583;53.012;6.556;2022-07-09T08:13:55;20.20;99.90
52743;DHT22;55583;53.012;6.556;2022-07-09T08:16:20;20.50;99.90
52743;DHT22;55583;53.012;6.556;2022-07-09T08:18:47;20.70;99.90
52743;DHT22;55583;53.012;6.556;2022-07-09T08:21:13;20.90;99.90
52743;DHT22;55583;53.012;6.556;2022-07-09T08:23:38;20.90;99.90
52743;DHT22;55583;53.012;6.556;2022-07-09T08:26:21;20.80;99.90
52743;DHT22;55583;53.012;6.556;2022-07-09T08:28:47;20.80;99.90
52743;DHT22;55583;53.012;6.556;2022-07-09T08:31:15;21.00;99.90
52743;DHT22;55583;53.012;6.556;2022-07-09T08:33:41;21.20;99.90
52743;DHT22;55583;53.012;6.556;2022-07-09T08:36:06;21.60;99.90
52743;DHT22;55583;53.012;6.556;2022-07-09T08:38:32;21.60;99.90
52743;DHT22;55583;53.012;6.556;2022-07-09T08:40:59;21.40;99.90
52743;DHT22;55583;53.012;6.556;2022-07-09T08:43:26;21.20;99.90
52743;DHT22;55583;53.012;6.556;2022-07-09T08:45:53;21.00;99.90
52743;DHT22;55583;53.012;6.556;2022-07-09T08:48:20;21.10;99.90
52743;DHT22;55583;53.012;6.556;2022-07-09T08:50:48;22.60;99.90
52743;DHT22;55583;53.012;6.556;2022-07-09T08:53:16;24.30;99.90
52743;DHT22;55583;53.012;6.556;2022-07-09T08:55:43;26.10;99.90
52743;DHT22;55583;53.012;6.556;2022-07-09T08:58:12;27.10;99.90
52743;DHT22;55583;53.012;6.556;2022-07-09T09:00:38;27.50;97.60
52743;DHT22;55583;53.012;6.556;2022-07-09T09:03:05;26.90;97.10
52743;DHT22;55583;53.012;6.556;2022-07-09T09:05:30;25.90;98.60
52743;DHT22;55583;53.012;6.556;2022-07-09T09:07:56;25.20;99.90
52743;DHT22;55583;53.012;6.556;2022-07-09T09:10:26;24.50;99.90
52743;DHT22;55583;53.012;6.556;2022-07-09T09:12:57;24.10;99.90
52743;DHT22;55583;53.012;6.556;2022-07-09T09:15:23;23.50;99.90
52743;DHT22;55583;53.012;6.556;2022-07-09T09:17:49;23.10;99.90
52743;DHT22;55583;53.012;6.556;2022-07-09T09:20:15;22.80;99.90
52743;DHT22;55583;53.012;6.556;2022-07-09T09:22:52;22.50;99.90
52743;DHT22;55583;53.012;6.556;2022-07-09T09:25:29;22.20;99.90
52743;DHT22;55583;53.012;6.556;2022-07-09T09:27:57;22.10;99.90
52743;DHT22;55583;53.012;6.556;2022-07-09T09:30:24;23.20;99.90
52743;DHT22;55583;53.012;6.556;2022-07-09T09:33:03;24.00;99.90
52743;DHT22;55583;53.012;6.556;2022-07-09T09:35:35;25.10;96.10
52743;DHT22;55583;53.012;6.556;2022-07-09T09:38:07;25.30;95.20
52743;DHT22;55583;53.012;6.556;2022-07-09T09:40:32;25.00;96.70
52743;DHT22;55583;53.012;6.556;2022-07-09T09:43:02;24.30;97.40
52743;DHT22;55583;53.012;6.556;2022-07-09T09:45:28;23.90;97.10
52743;DHT22;55583;53.012;6.556;2022-07-09T09:47:54;24.10;98.30
52743;DHT22;55583;53.012;6.556;2022-07-09T09:50:21;24.80;96.00
52743;DHT22;55583;53.012;6.556;2022-07-09T09:52:49;25.50;94.80
52743;DHT22;55583;53.012;6.556;2022-07-09T09:55:16;26.20;93.60
52743;DHT22;55583;53.012;6.556;2022-07-09T09:57:42;26.80;91.40
52743;DHT22;55583;53.012;6.556;2022-07-09T10:00:10;26.60;90.00
52743;DHT22;55583;53.012;6.556;2022-07-09T10:02:39;25.90;91.50
52743;DHT22;55583;53.012;6.556;2022-07-09T10:05:07;25.20;93.70
52743;DHT22;55583;53.012;6.556;2022-07-09T10:07:33;25.20;94.40
52743;DHT22;55583;53.012;6.556;2022-07-09T10:09:59;25.50;94.00
52743;DHT22;55583;53.012;6.556;2022-07-09T10:14:52;25.60;92.30
52743;DHT22;55583;53.012;6.556;2022-07-09T10:17:17;25.40;92.10
52743;DHT22;55583;53.012;6.556;2022-07-09T10:20:03;25.10;92.60
52743;DHT22;55583;53.012;6.556;2022-07-09T10:22:38;25.20;89.60
52743;DHT22;55583;53.012;6.556;2022-07-09T10:25:08;26.30;89.90
52743;DHT22;55583;53.012;6.556;2022-07-09T10:27:47;27.10;81.00
52743;DHT22;55583;53.012;6.556;2022-07-09T10:30:28;27.40;75.10
52743;DHT22;55583;53.012;6.556;2022-07-09T10:33:08;28.60;70.90
52743;DHT22;55583;53.012;6.556;2022-07-09T10:35:42;29.30;58.50
52743;DHT22;55583;53.012;6.556;2022-07-09T10:38:08;29.50;60.30
52743;DHT22;55583;53.012;6.556;2022-07-09T10:40:45;30.30;58.80
52743;DHT22;55583;53.012;6.556;2022-07-09T10:43:12;31.40;53.70
52743;DHT22;55583;53.012;6.556;2022-07-09T10:48:09;30.10;55.90
52743;DHT22;55583;53.012;6.556;2022-07-09T10:50:45;29.20;60.10
52743;DHT22;55583;53.012;6.556;2022-07-09T10:53:14;28.50;62.40
52743;DHT22;55583;53.012;6.556;2022-07-09T10:55:43;27.60;72.60
52743;DHT22;55583;53.012;6.556;2022-07-09T10:58:21;27.30;79.60
52743;DHT22;55583;53.012;6.556;2022-07-09T11:00:59;27.10;79.80
52743;DHT22;55583;53.012;6.556;2022-07-09T11:03:26;26.60;80.80
52743;DHT22;55583;53.012;6.556;2022-07-09T11:05:52;26.10;88.80
52743;DHT22;55583;53.012;6.556;2022-07-09T11:08:17;26.10;89.60
52743;DHT22;55583;53.012;6.556;2022-07-09T11:10:43;26.10;88.20
52743;DHT22;55583;53.012;6.556;2022-07-09T11:13:09;26.20;87.10
52743;DHT22;55583;53.012;6.556;2022-07-09T11:15:36;26.00;86.50
52743;DHT22;55583;53.012;6.556;2022-07-09T11:18:03;25.80;86.30
52743;DHT22;55583;53.012;6.556;2022-07-09T11:20:31;25.40;87.80
52743;DHT22;55583;53.012;6.556;2022-07-09T11:22:57;24.80;90.90
52743;DHT22;55583;53.012;6.556;2022-07-09T11:25:28;24.60;92.10
52743;DHT22;55583;53.012;6.556;2022-07-09T11:27:58;24.60;92.60
52743;DHT22;55583;53.012;6.556;2022-07-09T11:30:24;25.00;91.00
52743;DHT22;55583;53.012;6.556;2022-07-09T11:32:50;25.70;89.90
52743;DHT22;55583;53.012;6.556;2022-07-09T11:35:32;26.10;84.40
52743;DHT22;55583;53.012;6.556;2022-07-09T11:38:01;25.90;81.10
52743;DHT22;55583;53.012;6.556;2022-07-09T11:40:27;25.50;83.00
52743;DHT22;55583;53.012;6.556;2022-07-09T11:42:53;25.10;85.30
52743;DHT22;55583;53.012;6.556;2022-07-09T11:45:27;25.30;86.00
52743;DHT22;55583;53.012;6.556;2022-07-09T11:48:07;25.60;82.70
52743;DHT22;55583;53.012;6.556;2022-07-09T11:50:34;26.40;68.80
52743;DHT22;55583;53.012;6.556;2022-07-09T11:53:06;27.20;68.40
52743;DHT22;55583;53.012;6.556;2022-07-09T11:55:32;28.10;62.10
52743;DHT22;55583;53.012;6.556;2022-07-09T11:58:05;28.60;60.00
52743;DHT22;55583;53.012;6.556;2022-07-09T12:00:33;29.10;58.90
52743;DHT22;55583;53.012;6.556;2022-07-09T12:03:00;29.60;56.10
52743;DHT22;55583;53.012;6.556;2022-07-09T12:05:33;30.10;55.60
52743;DHT22;55583;53.012;6.556;2022-07-09T12:08:03;30.60;53.50
52743;DHT22;55583;53.012;6.556;2022-07-09T12:10:35;30.90;50.80
52743;DHT22;55583;53.012;6.556;2022-07-09T12:13:01;31.20;50.10
52743;DHT22;55583;53.012;6.556;2022-07-09T12:15:28;31.20;48.80
52743;DHT22;55583;53.012;6.556;2022-07-09T12:17:56;31.10;49.20
52743;DHT22;55583;53.012;6.556;2022-07-09T12:20:27;31.40;50.20
52743;DHT22;55583;53.012;6.556;2022-07-09T12:22:53;31.40;48.80
52743;DHT22;55583;53.012;6.556;2022-07-09T12:25:19;31.50;50.10
52743;DHT22;55583;53.012;6.556;2022-07-09T12:27:45;31.10;49.50
52743;DHT22;55583;53.012;6.556;2022-07-09T12:30:12;30.40;49.70
52743;DHT22;55583;53.012;6.556;2022-07-09T12:32:38;30.00;50.20
52743;DHT22;55583;53.012;6.556;2022-07-09T12:35:05;29.70;50.20
52743;DHT22;55583;53.012;6.556;2022-07-09T12:37:31;29.90;50.70
52743;DHT22;55583;53.012;6.556;2022-07-09T12:39:57;30.20;50.20
52743;DHT22;55583;53.012;6.556;2022-07-09T12:42:22;30.10;50.20
52743;DHT22;55583;53.012;6.556;2022-07-09T12:44:48;30.20;50.60
52743;DHT22;55583;53.012;6.556;2022-07-09T12:47:14;30.50;51.20
52743;DHT22;55583;53.012;6.556;2022-07-09T12:49:39;30.50;50.30
52743;DHT22;55583;53.012;6.556;2022-07-09T12:52:06;30.20;49.90
52743;DHT22;55583;53.012;6.556;2022-07-09T12:54:31;29.50;50.40
52743;DHT22;55583;53.012;6.556;2022-07-09T12:56:57;29.20;51.90
52743;DHT22;55583;53.012;6.556;2022-07-09T12:59:23;29.00;51.40
52743;DHT22;55583;53.012;6.556;2022-07-09T13:01:48;28.70;51.70
52743;DHT22;55583;53.012;6.556;2022-07-09T13:04:17;28.70;51.90
52743;DHT22;55583;53.012;6.556;2022-07-09T13:06:43;29.10;52.70
52743;DHT22;55583;53.012;6.556;2022-07-09T13:09:09;29.50;51.60
52743;DHT22;55583;53.012;6.556;2022-07-09T13:11:38;29.80;50.80
52743;DHT22;55583;53.012;6.556;2022-07-09T13:14:04;29.60;50.40
52743;DHT22;55583;53.012;6.556;2022-07-09T13:16:30;29.60;49.80
52743;DHT22;55583;53.012;6.556;2022-07-09T13:18:56;29.30;50.50
52743;DHT22;55583;53.012;6.556;2022-07-09T13:21:22;29.10;51.60
52743;DHT22;55583;53.012;6.556;2022-07-09T13:23:49;28.40;51.40
52743;DHT22;55583;53.012;6.556;2022-07-09T13:26:15;27.90;52.90
52743;DHT22;55583;53.012;6.556;2022-07-09T13:28:42;27.80;53.10
52743;DHT22;55583;53.012;6.556;2022-07-09T13:31:08;27.70;53.20
52743;DHT22;55583;53.012;6.556;2022-07-09T13:33:35;27.80;53.70
52743;DHT22;55583;53.012;6.556;2022-07-09T13:36:03;28.20;53.00
52743;DHT22;55583;53.012;6.556;2022-07-09T13:38:29;28.50;52.50
52743;DHT22;55583;53.012;6.556;2022-07-09T13:40:55;28.80;51.90
52743;DHT22;55583;53.012;6.556;2022-07-09T13:43:21;28.70;51.50
52743;DHT22;55583;53.012;6.556;2022-07-09T13:45:48;28.50;51.80
52743;DHT22;55583;53.012;6.556;2022-07-09T13:48:14;28.20;52.50
52743;DHT22;55583;53.012;6.556;2022-07-09T13:50:39;28.00;52.80
52743;DHT22;55583;53.012;6.556;2022-07-09T13:53:05;27.80;52.40
52743;DHT22;55583;53.012;6.556;2022-07-09T13:55:31;27.70;52.90
52743;DHT22;55583;53.012;6.556;2022-07-09T13:57:56;27.60;53.40
52743;DHT22;55583;53.012;6.556;2022-07-09T14:00:22;27.60;53.00
52743;DHT22;55583;53.012;6.556;2022-07-09T14:02:48;27.10;53.30
52743;DHT22;55583;53.012;6.556;2022-07-09T14:05:14;26.70;53.90
52743;DHT22;55583;53.012;6.556;2022-07-09T14:07:40;26.10;54.90
52743;DHT22;55583;53.012;6.556;2022-07-09T14:10:06;26.00;56.10
52743;DHT22;55583;53.012;6.556;2022-07-09T14:12:32;26.10;56.00
52743;DHT22;55583;53.012;6.556;2022-07-09T14:14:58;26.10;56.00
52743;DHT22;55583;53.012;6.556;2022-07-09T14:17:25;25.70;56.10
52743;DHT22;55583;53.012;6.556;2022-07-09T14:19:51;25.60;56.90
52743;DHT22;55583;53.012;6.556;2022-07-09T14:22:16;25.40;58.00
52743;DHT22;55583;53.012;6.556;2022-07-09T14:24:42;25.10;58.00
52743;DHT22;55583;53.012;6.556;2022-07-09T14:27:08;24.80;59.90
52743;DHT22;55583;53.012;6.556;2022-07-09T14:29:33;24.50;61.00
52743;DHT22;55583;53.012;6.556;2022-07-09T14:31:59;24.30;63.70
52743;DHT22;55583;53.012;6.556;2022-07-09T14:34:25;24.60;65.10
52743;DHT22;55583;53.012;6.556;2022-07-09T14:36:51;25.00;63.00
52743;DHT22;55583;53.012;6.556;2022-07-09T14:39:18;24.80;63.00
52743;DHT22;55583;53.012;6.556;2022-07-09T14:41:44;24.40;64.70
52743;DHT22;55583;53.012;6.556;2022-07-09T14:44:09;24.00;68.60
52743;DHT22;55583;53.012;6.556;2022-07-09T14:46:36;23.70;70.00
52743;DHT22;55583;53.012;6.556;2022-07-09T14:49:02;23.60;73.60
52743;DHT22;55583;53.012;6.556;2022-07-09T14:51:28;23.30;77.20
52743;DHT22;55583;53.012;6.556;2022-07-09T14:53:53;23.20;80.00
52743;DHT22;55583;53.012;6.556;2022-07-09T14:56:19;23.10;81.90
52743;DHT22;55583;53.012;6.556;2022-07-09T14:58:44;22.90;81.30
52743;DHT22;55583;53.012;6.556;2022-07-09T15:01:10;22.80;82.50
52743;DHT22;55583;53.012;6.556;2022-07-09T15:03:36;22.50;84.10
52743;DHT22;55583;53.012;6.556;2022-07-09T15:06:02;22.20;87.40
52743;DHT22;55583;53.012;6.556;2022-07-09T15:08:27;22.10;88.40
52743;DHT22;55583;53.012;6.556;2022-07-09T15:10:53;22.10;89.20
52743;DHT22;55583;53.012;6.556;2022-07-09T15:13:19;22.30;89.20
52743;DHT22;55583;53.012;6.556;2022-07-09T15:15:44;22.30;87.70
52743;DHT22;55583;53.012;6.556;2022-07-09T15:18:10;22.30;85.70
52743;DHT22;55583;53.012;6.556;2022-07-09T15:20:35;22.10;86.00
52743;DHT22;55583;53.012;6.556;2022-07-09T15:23:01;21.90;85.40
52743;DHT22;55583;53.012;6.556;2022-07-09T15:25:28;21.90;84.10
52743;DHT22;55583;53.012;6.556;2022-07-09T15:27:56;22.00;83.60
52743;DHT22;55583;53.012;6.556;2022-07-09T15:30:22;22.20;84.10
52743;DHT22;55583;53.012;6.556;2022-07-09T15:32:48;22.40;78.10